sensor_id;sensor_type;location;lat;lon;timestamp;pressure;altitude;pressure_sealevel;temperature;humidity
37206;BME280;23099;42.636;23.198;2023-10-31T00:01:15;92196.19;;;12.85;75.89
37206;BME280;23099;42.636;23.198;2023-10-31T00:03:41;92201.56;;;12.85;76.19
37206;BME280;23099;42.636;23.198;2023-10-31T00:06:09;92199.22;;;12.80;76.20
37206;BME280;23099;42.636;23.198;2023-10-31T00:08:37;92196.47;;;12.72;76.08
37206;BME280;23099;42.636;23.198;2023-10-31T00:11:04;92185.31;;;12.70;76.18
37206;BME280;23099;42.636;23.198;2023-10-31T00:13:31;92196.03;;;12.67;76.60
37206;BME280;23099;42.636;23.198;2023-10-31T00:15:58;92188.38;;;12.65;76.48
37206;BME280;23099;42.636;23.198;2023-10-31T00:18:24;92181.44;;;12.64;76.50
37206;BME280;23099;42.636;23.198;2023-10-31T00:20:51;92182.97;;;12.62;76.33
37206;BME280;23099;42.636;23.198;2023-10-31T00:23:18;92175.69;;;12.62;76.52
37206;BME280;23099;42.636;23.198;2023-10-31T00:25:46;92169.91;;;12.60;77.08
37206;BME280;23099;42.636;23.198;2023-10-31T00:28:12;92171.47;;;12.61;76.58
37206;BME280;23099;42.636;23.198;2023-10-31T00:30:39;92173.03;;;12.66;75.80
37206;BME280;23099;42.636;23.198;2023-10-31T00:33:06;92162.00;;;12.74;75.69
37206;BME280;23099;42.636;23.198;2023-10-31T00:35:32;92168.56;;;12.77;75.54
37206;BME280;23099;42.636;23.198;2023-10-31T00:37:59;92164.28;;;12.72;75.33
37206;BME280;23099;42.636;23.198;2023-10-31T00:40:26;92155.81;;;12.70;75.55
37206;BME280;23099;42.636;23.198;2023-10-31T00:42:54;92157.69;;;12.63;75.51
37206;BME280;23099;42.636;23.198;2023-10-31T00:45:22;92163.81;;;12.63;75.66
37206;BME280;23099;42.636;23.198;2023-10-31T00:47:49;92157.69;;;12.63;76.02
37206;BME280;23099;42.636;23.198;2023-10-31T00:50:15;92161.09;;;12.60;75.67
37206;BME280;23099;42.636;23.198;2023-10-31T00:52:42;92159.97;;;12.61;75.97
37206;BME280;23099;42.636;23.198;2023-10-31T00:55:09;92156.91;;;12.62;76.07
37206;BME280;23099;42.636;23.198;2023-10-31T00:57:35;92152.69;;;12.61;75.90
37206;BME280;23099;42.636;23.198;2023-10-31T01:00:04;92154.19;;;12.59;75.60
37206;BME280;23099;42.636;23.198;2023-10-31T01:02:31;92152.16;;;12.45;76.25
37206;BME280;23099;42.636;23.198;2023-10-31T01:04:58;92148.84;;;12.22;76.59
37206;BME280;23099;42.636;23.198;2023-10-31T01:07:25;92147.25;;;12.17;77.15
37206;BME280;23099;42.636;23.198;2023-10-31T01:09:52;92139.88;;;12.07;77.35
37206;BME280;23099;42.636;23.198;2023-10-31T01:12:19;92139.28;;;11.91;78.19
37206;BME280;23099;42.636;23.198;2023-10-31T01:14:45;92140.72;;;11.81;78.29
37206;BME280;23099;42.636;23.198;2023-10-31T01:17:13;92142.56;;;11.77;79.04
37206;BME280;23099;42.636;23.198;2023-10-31T01:19:40;92143.50;;;11.62;79.06
37206;BME280;23099;42.636;23.198;2023-10-31T01:22:07;92130.41;;;11.57;79.11
37206;BME280;23099;42.636;23.198;2023-10-31T01:24:34;92138.72;;;11.48;79.45
37206;BME280;23099;42.636;23.198;2023-10-31T01:27:01;92137.69;;;11.30;80.04
37206;BME280;23099;42.636;23.198;2023-10-31T01:29:28;92120.72;;;11.19;80.66
37206;BME280;23099;42.636;23.198;2023-10-31T01:31:55;92121.50;;;11.19;80.53
37206;BME280;23099;42.636;23.198;2023-10-31T01:34:23;92123.75;;;11.17;80.30
37206;BME280;23099;42.636;23.198;2023-10-31T01:36:50;92125.03;;;11.01;80.46
37206;BME280;23099;42.636;23.198;2023-10-31T01:39:16;92116.19;;;10.96;80.83
37206;BME280;23099;42.636;23.198;2023-10-31T01:41:43;92120.25;;;10.87;80.84
37206;BME280;23099;42.636;23.198;2023-10-31T01:44:10;92115.66;;;10.87;82.06
37206;BME280;23099;42.636;23.198;2023-10-31T01:46:37;92115.72;;;10.91;81.80
37206;BME280;23099;42.636;23.198;2023-10-31T01:49:03;92123.47;;;10.96;81.64
37206;BME280;23099;42.636;23.198;2023-10-31T01:51:32;92120.00;;;10.95;82.84
37206;BME280;23099;42.636;23.198;2023-10-31T01:53:58;92115.16;;;11.05;82.62
37206;BME280;23099;42.636;23.198;2023-10-31T01:56:25;92115.66;;;11.10;82.03
37206;BME280;23099;42.636;23.198;2023-10-31T01:58:53;92108.41;;;11.14;81.40
37206;BME280;23099;42.636;23.198;2023-10-31T02:01:20;92115.09;;;11.27;81.05
37206;BME280;23099;42.636;23.198;2023-10-31T02:03:47;92111.41;;;11.36;81.04
37206;BME280;23099;42.636;23.198;2023-10-31T02:06:14;92100.00;;;11.42;80.97
37206;BME280;23099;42.636;23.198;2023-10-31T02:08:42;92099.56;;;11.37;80.37
37206;BME280;23099;42.636;23.198;2023-10-31T02:11:09;92093.88;;;11.38;79.20
37206;BME280;23099;42.636;23.198;2023-10-31T02:13:36;92100.84;;;11.46;79.64
37206;BME280;23099;42.636;23.198;2023-10-31T02:16:03;92103.03;;;11.41;79.17
37206;BME280;23099;42.636;23.198;2023-10-31T02:18:30;92089.66;;;11.41;79.66
37206;BME280;23099;42.636;23.198;2023-10-31T02:20:57;92091.28;;;11.45;78.43
37206;BME280;23099;42.636;23.198;2023-10-31T02:23:25;92085.19;;;11.48;78.31
37206;BME280;23099;42.636;23.198;2023-10-31T02:25:51;92092.09;;;11.49;77.96
37206;BME280;23099;42.636;23.198;2023-10-31T02:28:18;92085.59;;;11.50;77.34
37206;BME280;23099;42.636;23.198;2023-10-31T02:30:45;92087.16;;;11.51;76.47
37206;BME280;23099;42.636;23.198;2023-10-31T02:33:12;92089.84;;;11.55;76.60
37206;BME280;23099;42.636;23.198;2023-10-31T02:35:39;92089.84;;;11.55;76.10
37206;BME280;23099;42.636;23.198;2023-10-31T02:38:05;92090.63;;;11.55;76.03
37206;BME280;23099;42.636;23.198;2023-10-31T02:40:33;92089.84;;;11.55;76.42
37206;BME280;23099;42.636;23.198;2023-10-31T02:43:00;92089.06;;;11.54;76.84
37206;BME280;23099;42.636;23.198;2023-10-31T02:45:27;92083.69;;;11.51;77.25
37206;BME280;23099;42.636;23.198;2023-10-31T02:47:53;92085.59;;;11.50;76.82
37206;BME280;23099;42.636;23.198;2023-10-31T02:50:20;92097.81;;;11.48;76.70
37206;BME280;23099;42.636;23.198;2023-10-31T02:52:47;92093.53;;;11.43;77.27
37206;BME280;23099;42.636;23.198;2023-10-31T02:55:13;92095.72;;;11.34;78.44
37206;BME280;23099;42.636;23.198;2023-10-31T02:57:41;92093.41;;;11.32;78.00
37206;BME280;23099;42.636;23.198;2023-10-31T03:00:09;92091.84;;;11.31;78.11
37206;BME280;23099;42.636;23.198;2023-10-31T03:02:36;92089.22;;;11.35;78.01
37206;BME280;23099;42.636;23.198;2023-10-31T03:05:03;92088.03;;;11.32;78.70
37206;BME280;23099;42.636;23.198;2023-10-31T03:07:30;92091.19;;;11.38;78.76
37206;BME280;23099;42.636;23.198;2023-10-31T03:09:56;92091.50;;;11.33;78.68
37206;BME280;23099;42.636;23.198;2023-10-31T03:12:23;92092.25;;;11.33;79.37
37206;BME280;23099;42.636;23.198;2023-10-31T03:14:51;92094.88;;;11.30;78.71
37206;BME280;23099;42.636;23.198;2023-10-31T03:17:18;92085.38;;;11.32;78.50
37206;BME280;23099;42.636;23.198;2023-10-31T03:19:45;92082.75;;;11.36;77.66
37206;BME280;23099;42.636;23.198;2023-10-31T03:22:11;92072.09;;;11.40;77.78
37206;BME280;23099;42.636;23.198;2023-10-31T03:24:38;92069.44;;;11.43;77.51
37206;BME280;23099;42.636;23.198;2023-10-31T03:27:05;92064.19;;;11.50;76.65
37206;BME280;23099;42.636;23.198;2023-10-31T03:29:32;92053.50;;;11.50;76.79
37206;BME280;23099;42.636;23.198;2023-10-31T03:32:00;92056.22;;;11.54;75.95
37206;BME280;23099;42.636;23.198;2023-10-31T03:34:27;92045.88;;;11.56;75.65
37206;BME280;23099;42.636;23.198;2023-10-31T03:36:54;92039.75;;;11.55;74.59
37206;BME280;23099;42.636;23.198;2023-10-31T03:39:20;92044.91;;;11.71;73.81
37206;BME280;23099;42.636;23.198;2023-10-31T03:41:47;92041.19;;;11.76;73.61
37206;BME280;23099;42.636;23.198;2023-10-31T03:44:14;92042.44;;;11.85;72.24
37206;BME280;23099;42.636;23.198;2023-10-31T03:46:39;92040.09;;;11.80;73.90
37206;BME280;23099;42.636;23.198;2023-10-31T03:49:07;92046.53;;;11.76;75.84
37206;BME280;23099;42.636;23.198;2023-10-31T03:51:34;92050.25;;;11.67;76.80
37206;BME280;23099;42.636;23.198;2023-10-31T03:54:01;92046.81;;;11.70;77.51
37206;BME280;23099;42.636;23.198;2023-10-31T03:56:27;92050.94;;;11.61;76.08
37206;BME280;23099;42.636;23.198;2023-10-31T03:58:54;92044.00;;;11.56;76.45
37206;BME280;23099;42.636;23.198;2023-10-31T04:01:21;92043.50;;;11.47;75.26
37206;BME280;23099;42.636;23.198;2023-10-31T04:03:48;92049.94;;;11.43;75.79
37206;BME280;23099;42.636;23.198;2023-10-31T04:06:16;92047.84;;;11.29;76.51
37206;BME280;23099;42.636;23.198;2023-10-31T04:08:43;92035.75;;;11.09;76.93
37206;BME280;23099;42.636;23.198;2023-10-31T04:11:10;92028.88;;;11.08;78.08
37206;BME280;23099;42.636;23.198;2023-10-31T04:13:36;92039.94;;;11.06;78.77
37206;BME280;23099;42.636;23.198;2023-10-31T04:16:04;92029.44;;;10.94;79.72
37206;BME280;23099;42.636;23.198;2023-10-31T04:18:30;92029.13;;;10.99;79.30
37206;BME280;23099;42.636;23.198;2023-10-31T04:20:57;92027.63;;;11.02;79.32
37206;BME280;23099;42.636;23.198;2023-10-31T04:23:25;92018.56;;;10.80;80.30
37206;BME280;23099;42.636;23.198;2023-10-31T04:25:52;92027.34;;;10.80;81.21
37206;BME280;23099;42.636;23.198;2023-10-31T04:28:18;92029.59;;;10.78;81.01
37206;BME280;23099;42.636;23.198;2023-10-31T04:30:45;92023.84;;;10.76;81.10
37206;BME280;23099;42.636;23.198;2023-10-31T04:33:12;92016.06;;;10.68;81.48
37206;BME280;23099;42.636;23.198;2023-10-31T04:35:38;92022.94;;;10.65;80.93
37206;BME280;23099;42.636;23.198;2023-10-31T04:38:05;92024.34;;;10.59;80.96
37206;BME280;23099;42.636;23.198;2023-10-31T04:40:33;92028.63;;;10.63;80.51
37206;BME280;23099;42.636;23.198;2023-10-31T04:43:00;92030.75;;;10.54;80.37
37206;BME280;23099;42.636;23.198;2023-10-31T04:45:27;92031.53;;;10.55;79.98
37206;BME280;23099;42.636;23.198;2023-10-31T04:47:54;92029.72;;;10.36;80.63
37206;BME280;23099;42.636;23.198;2023-10-31T04:50:21;92038.56;;;10.40;80.54
37206;BME280;23099;42.636;23.198;2023-10-31T04:52:47;92032.00;;;10.34;80.49
37206;BME280;23099;42.636;23.198;2023-10-31T04:55:14;92047.25;;;10.34;79.99
37206;BME280;23099;42.636;23.198;2023-10-31T04:57:42;92031.09;;;10.26;80.01
37206;BME280;23099;42.636;23.198;2023-10-31T05:00:10;92046.63;;;10.44;79.21
37206;BME280;23099;42.636;23.198;2023-10-31T05:02:37;92036.53;;;10.56;78.36
37206;BME280;23099;42.636;23.198;2023-10-31T05:05:04;92036.72;;;10.97;76.31
37206;BME280;23099;42.636;23.198;2023-10-31T05:07:30;92029.91;;;11.29;74.72
37206;BME280;23099;42.636;23.198;2023-10-31T05:09:58;92032.25;;;11.64;72.85
37206;BME280;23099;42.636;23.198;2023-10-31T05:12:25;92036.34;;;11.88;71.96
37206;BME280;23099;42.636;23.198;2023-10-31T05:14:53;92033.13;;;12.13;69.33
37206;BME280;23099;42.636;23.198;2023-10-31T05:17:19;92023.41;;;12.34;69.15
37206;BME280;23099;42.636;23.198;2023-10-31T05:19:46;92036.16;;;12.48;67.76
37206;BME280;23099;42.636;23.198;2023-10-31T05:22:14;92042.78;;;12.65;66.29
37206;BME280;23099;42.636;23.198;2023-10-31T05:24:41;92048.56;;;12.70;66.69
37206;BME280;23099;42.636;23.198;2023-10-31T05:27:07;92045.97;;;12.81;65.69
37206;BME280;23099;42.636;23.198;2023-10-31T05:29:34;92049.53;;;12.99;64.13
37206;BME280;23099;42.636;23.198;2023-10-31T05:32:03;92057.66;;;13.06;64.60
37206;BME280;23099;42.636;23.198;2023-10-31T05:34:29;92046.63;;;13.19;63.91
37206;BME280;23099;42.636;23.198;2023-10-31T05:36:56;92046.28;;;13.24;63.85
37206;BME280;23099;42.636;23.198;2023-10-31T05:39:23;92048.97;;;13.24;62.88
37206;BME280;23099;42.636;23.198;2023-10-31T05:41:49;92050.16;;;13.33;60.90
37206;BME280;23099;42.636;23.198;2023-10-31T05:44:17;92047.53;;;13.40;61.37
37206;BME280;23099;42.636;23.198;2023-10-31T05:46:44;92053.28;;;13.46;61.16
37206;BME280;23099;42.636;23.198;2023-10-31T05:49:12;92057.16;;;13.49;60.10
37206;BME280;23099;42.636;23.198;2023-10-31T05:51:38;92060.63;;;13.56;60.21
37206;BME280;23099;42.636;23.198;2023-10-31T05:54:06;92054.91;;;13.61;60.47
37206;BME280;23099;42.636;23.198;2023-10-31T05:56:33;92065.28;;;13.66;59.65
37206;BME280;23099;42.636;23.198;2023-10-31T05:59:00;92067.22;;;13.66;58.71
37206;BME280;23099;42.636;23.198;2023-10-31T06:01:26;92065.69;;;13.72;57.89
37206;BME280;23099;42.636;23.198;2023-10-31T06:03:54;92074.56;;;13.83;57.18
37206;BME280;23099;42.636;23.198;2023-10-31T06:06:22;92082.66;;;13.94;57.22
37206;BME280;23099;42.636;23.198;2023-10-31T06:08:48;92079.59;;;13.95;56.97
37206;BME280;23099;42.636;23.198;2023-10-31T06:11:15;92080.78;;;13.98;56.86
37206;BME280;23099;42.636;23.198;2023-10-31T06:13:42;92085.00;;;14.06;56.80
37206;BME280;23099;42.636;23.198;2023-10-31T06:16:09;92076.56;;;14.14;56.44
37206;BME280;23099;42.636;23.198;2023-10-31T06:18:38;92075.06;;;14.21;56.81
37206;BME280;23099;42.636;23.198;2023-10-31T06:21:05;92068.56;;;14.32;56.32
37206;BME280;23099;42.636;23.198;2023-10-31T06:23:34;92077.44;;;14.43;53.77
37206;BME280;23099;42.636;23.198;2023-10-31T06:26:01;92079.00;;;14.55;52.57
37206;BME280;23099;42.636;23.198;2023-10-31T06:28:28;92078.63;;;14.64;51.43
37206;BME280;23099;42.636;23.198;2023-10-31T06:30:55;92085.53;;;14.75;48.90
37206;BME280;23099;42.636;23.198;2023-10-31T06:33:21;92090.16;;;14.78;49.92
37206;BME280;23099;42.636;23.198;2023-10-31T06:35:48;92072.09;;;14.90;49.06
37206;BME280;23099;42.636;23.198;2023-10-31T06:38:17;92076.72;;;15.00;47.39
37206;BME280;23099;42.636;23.198;2023-10-31T06:40:45;92066.72;;;15.11;46.73
37206;BME280;23099;42.636;23.198;2023-10-31T06:43:11;92058.22;;;15.19;46.02
37206;BME280;23099;42.636;23.198;2023-10-31T06:45:38;92068.63;;;15.21;46.55
37206;BME280;23099;42.636;23.198;2023-10-31T06:48:05;92080.94;;;15.26;46.17
37206;BME280;23099;42.636;23.198;2023-10-31T06:50:34;92071.28;;;15.32;46.38
37206;BME280;23099;42.636;23.198;2023-10-31T06:53:01;92060.91;;;15.41;45.08
37206;BME280;23099;42.636;23.198;2023-10-31T06:55:28;92080.13;;;15.46;43.29
37206;BME280;23099;42.636;23.198;2023-10-31T06:57:56;92061.63;;;15.59;42.27
37206;BME280;23099;42.636;23.198;2023-10-31T07:00:23;92061.22;;;15.71;42.00
37206;BME280;23099;42.636;23.198;2023-10-31T07:02:49;92055.81;;;15.75;42.40
37206;BME280;23099;42.636;23.198;2023-10-31T07:05:17;92059.28;;;15.75;42.39
37206;BME280;23099;42.636;23.198;2023-10-31T07:07:45;92056.19;;;15.84;41.96
37206;BME280;23099;42.636;23.198;2023-10-31T07:10:12;92053.09;;;15.85;43.09
37206;BME280;23099;42.636;23.198;2023-10-31T07:12:39;92062.69;;;15.90;41.75
37206;BME280;23099;42.636;23.198;2023-10-31T07:15:08;92058.44;;;15.96;40.55
37206;BME280;23099;42.636;23.198;2023-10-31T07:17:35;92052.59;;;16.08;39.99
37206;BME280;23099;42.636;23.198;2023-10-31T07:20:01;92051.06;;;16.11;39.21
37206;BME280;23099;42.636;23.198;2023-10-31T07:22:28;92054.47;;;16.18;39.43
37206;BME280;23099;42.636;23.198;2023-10-31T07:24:55;92046.38;;;16.22;39.69
37206;BME280;23099;42.636;23.198;2023-10-31T07:27:23;92056.72;;;16.31;39.42
37206;BME280;23099;42.636;23.198;2023-10-31T07:29:49;92062.78;;;16.45;38.10
37206;BME280;23099;42.636;23.198;2023-10-31T07:32:17;92048.47;;;16.59;38.03
37206;BME280;23099;42.636;23.198;2023-10-31T07:34:44;92056.81;;;16.79;38.64
37206;BME280;23099;42.636;23.198;2023-10-31T07:37:11;92049.69;;;17.03;38.08
37206;BME280;23099;42.636;23.198;2023-10-31T07:39:37;92049.88;;;17.26;37.15
37206;BME280;23099;42.636;23.198;2023-10-31T07:42:04;92045.50;;;17.39;37.92
37206;BME280;23099;42.636;23.198;2023-10-31T07:44:31;92051.09;;;17.59;37.81
37206;BME280;23099;42.636;23.198;2023-10-31T07:46:58;92058.19;;;17.83;36.16
37206;BME280;23099;42.636;23.198;2023-10-31T07:49:26;92050.72;;;17.94;36.03
37206;BME280;23099;42.636;23.198;2023-10-31T07:51:53;92054.03;;;18.09;35.60
37206;BME280;23099;42.636;23.198;2023-10-31T07:54:20;92050.00;;;18.21;36.52
37206;BME280;23099;42.636;23.198;2023-10-31T07:56:46;92042.94;;;18.30;37.00
37206;BME280;23099;42.636;23.198;2023-10-31T07:59:13;92043.91;;;18.44;36.86
37206;BME280;23099;42.636;23.198;2023-10-31T08:01:40;92038.72;;;18.56;36.00
37206;BME280;23099;42.636;23.198;2023-10-31T08:04:06;92035.50;;;18.65;35.44
37206;BME280;23099;42.636;23.198;2023-10-31T08:06:34;92046.13;;;18.79;35.72
37206;BME280;23099;42.636;23.198;2023-10-31T08:09:01;92037.31;;;18.98;36.55
37206;BME280;23099;42.636;23.198;2023-10-31T08:11:28;92041.84;;;19.05;34.82
37206;BME280;23099;42.636;23.198;2023-10-31T08:13:55;92031.97;;;19.18;35.97
37206;BME280;23099;42.636;23.198;2023-10-31T08:16:22;92051.53;;;19.29;35.62
37206;BME280;23099;42.636;23.198;2023-10-31T08:18:48;92043.22;;;19.40;37.05
37206;BME280;23099;42.636;23.198;2023-10-31T08:21:15;92026.78;;;19.27;35.40
37206;BME280;23099;42.636;23.198;2023-10-31T08:23:43;92026.22;;;19.36;35.46
37206;BME280;23099;42.636;23.198;2023-10-31T08:26:11;92025.97;;;19.30;34.03
37206;BME280;23099;42.636;23.198;2023-10-31T08:28:39;92018.09;;;19.36;34.18
37206;BME280;23099;42.636;23.198;2023-10-31T08:31:05;92018.59;;;19.31;34.56
37206;BME280;23099;42.636;23.198;2023-10-31T08:33:33;92010.38;;;19.34;34.24
37206;BME280;23099;42.636;23.198;2023-10-31T08:36:01;92014.06;;;19.24;31.65
37206;BME280;23099;42.636;23.198;2023-10-31T08:38:28;92014.81;;;19.25;31.45
37206;BME280;23099;42.636;23.198;2023-10-31T08:40:56;92009.75;;;19.27;31.00
37206;BME280;23099;42.636;23.198;2023-10-31T08:43:23;91993.91;;;19.25;30.87
37206;BME280;23099;42.636;23.198;2023-10-31T08:45:49;91980.94;;;19.36;31.32
37206;BME280;23099;42.636;23.198;2023-10-31T08:48:16;91978.22;;;19.36;30.94
37206;BME280;23099;42.636;23.198;2023-10-31T08:50:43;91968.38;;;19.46;31.70
37206;BME280;23099;42.636;23.198;2023-10-31T08:53:10;91979.09;;;19.53;31.28
37206;BME280;23099;42.636;23.198;2023-10-31T08:55:37;91969.84;;;19.51;30.22
37206;BME280;23099;42.636;23.198;2023-10-31T08:58:05;91963.38;;;19.45;30.78
37206;BME280;23099;42.636;23.198;2023-10-31T09:00:31;91963.72;;;19.47;30.28
37206;BME280;23099;42.636;23.198;2023-10-31T09:02:58;91966.84;;;19.45;29.40
37206;BME280;23099;42.636;23.198;2023-10-31T09:05:25;91954.41;;;19.48;28.96
37206;BME280;23099;42.636;23.198;2023-10-31T09:07:52;91946.56;;;19.53;29.74
37206;BME280;23099;42.636;23.198;2023-10-31T09:10:18;91952.75;;;19.54;29.39
37206;BME280;23099;42.636;23.198;2023-10-31T09:12:45;91953.28;;;19.45;29.24
37206;BME280;23099;42.636;23.198;2023-10-31T09:15:13;91944.69;;;19.50;28.69
37206;BME280;23099;42.636;23.198;2023-10-31T09:17:40;91949.69;;;19.52;28.77
37206;BME280;23099;42.636;23.198;2023-10-31T09:20:08;91936.13;;;19.52;28.77
37206;BME280;23099;42.636;23.198;2023-10-31T09:22:34;91939.13;;;19.57;30.48
37206;BME280;23099;42.636;23.198;2023-10-31T09:25:01;91940.09;;;19.67;29.41
37206;BME280;23099;42.636;23.198;2023-10-31T09:27:28;91934.44;;;19.77;27.98
37206;BME280;23099;42.636;23.198;2023-10-31T09:29:55;91934.03;;;19.79;27.85
37206;BME280;23099;42.636;23.198;2023-10-31T09:32:23;91932.66;;;19.91;28.74
37206;BME280;23099;42.636;23.198;2023-10-31T09:34:49;91915.72;;;20.03;29.04
37206;BME280;23099;42.636;23.198;2023-10-31T09:37:16;91920.63;;;20.08;28.14
37206;BME280;23099;42.636;23.198;2023-10-31T09:39:43;91904.56;;;20.17;27.21
37206;BME280;23099;42.636;23.198;2023-10-31T09:42:10;91910.16;;;20.26;26.83
37206;BME280;23099;42.636;23.198;2023-10-31T09:44:37;91897.63;;;20.32;27.73
37206;BME280;23099;42.636;23.198;2023-10-31T09:47:05;91905.13;;;20.44;26.77
37206;BME280;23099;42.636;23.198;2023-10-31T09:49:34;91906.53;;;20.65;27.34
37206;BME280;23099;42.636;23.198;2023-10-31T09:52:01;91887.38;;;20.72;27.02
37206;BME280;23099;42.636;23.198;2023-10-31T09:54:29;91884.97;;;20.91;25.92
37206;BME280;23099;42.636;23.198;2023-10-31T09:56:56;91881.34;;;21.10;25.94
37206;BME280;23099;42.636;23.198;2023-10-31T09:59:23;91886.88;;;21.23;25.91
37206;BME280;23099;42.636;23.198;2023-10-31T10:01:49;91869.97;;;21.15;25.00
37206;BME280;23099;42.636;23.198;2023-10-31T10:04:16;91873.09;;;21.13;24.41
37206;BME280;23099;42.636;23.198;2023-10-31T10:06:59;91859.00;;;21.18;24.97
37206;BME280;23099;42.636;23.198;2023-10-31T10:09:27;91864.59;;;21.28;26.11
37206;BME280;23099;42.636;23.198;2023-10-31T10:11:54;91862.00;;;21.37;26.02
37206;BME280;23099;42.636;23.198;2023-10-31T10:14:23;91855.72;;;21.40;26.28
37206;BME280;23099;42.636;23.198;2023-10-31T10:16:50;91846.47;;;21.37;26.84
37206;BME280;23099;42.636;23.198;2023-10-31T10:19:17;91841.34;;;21.39;25.44
37206;BME280;23099;42.636;23.198;2023-10-31T10:21:49;91844.72;;;21.31;25.79
37206;BME280;23099;42.636;23.198;2023-10-31T10:24:19;91847.44;;;21.31;25.64
37206;BME280;23099;42.636;23.198;2023-10-31T10:26:46;91835.50;;;21.12;25.09
37206;BME280;23099;42.636;23.198;2023-10-31T10:29:13;91845.50;;;21.15;24.07
37206;BME280;23099;42.636;23.198;2023-10-31T10:31:40;91845.50;;;21.15;23.76
37206;BME280;23099;42.636;23.198;2023-10-31T10:34:07;91834.59;;;21.31;23.54
37206;BME280;23099;42.636;23.198;2023-10-31T10:36:34;91820.38;;;21.40;24.08
37206;BME280;23099;42.636;23.198;2023-10-31T10:39:01;91814.53;;;21.54;23.77
37206;BME280;23099;42.636;23.198;2023-10-31T10:41:33;91802.25;;;21.75;22.88
37206;BME280;23099;42.636;23.198;2023-10-31T10:44:04;91790.84;;;22.18;22.15
37206;BME280;23099;42.636;23.198;2023-10-31T10:46:33;91787.97;;;22.47;18.66
37206;BME280;23099;42.636;23.198;2023-10-31T10:49:04;91781.41;;;22.44;19.13
37206;BME280;23099;42.636;23.198;2023-10-31T10:51:40;91785.66;;;22.45;17.96
37206;BME280;23099;42.636;23.198;2023-10-31T10:54:15;91793.28;;;22.50;19.19
37206;BME280;23099;42.636;23.198;2023-10-31T10:56:46;91785.78;;;22.42;19.16
37206;BME280;23099;42.636;23.198;2023-10-31T10:59:21;91797.25;;;22.24;19.28
37206;BME280;23099;42.636;23.198;2023-10-31T11:01:52;91794.09;;;22.26;19.56
37206;BME280;23099;42.636;23.198;2023-10-31T11:04:19;91786.25;;;22.28;20.39
37206;BME280;23099;42.636;23.198;2023-10-31T11:06:47;91780.81;;;22.15;20.88
37206;BME280;23099;42.636;23.198;2023-10-31T11:09:14;91768.75;;;22.16;20.17
37206;BME280;23099;42.636;23.198;2023-10-31T11:11:41;91773.09;;;22.13;21.61
37206;BME280;23099;42.636;23.198;2023-10-31T11:14:15;91769.69;;;21.97;22.79
37206;BME280;23099;42.636;23.198;2023-10-31T11:16:45;91768.84;;;21.74;22.59
37206;BME280;23099;42.636;23.198;2023-10-31T11:19:15;91762.41;;;21.56;23.59
37206;BME280;23099;42.636;23.198;2023-10-31T11:21:53;91758.50;;;21.44;24.12
37206;BME280;23099;42.636;23.198;2023-10-31T11:24:20;91760.22;;;21.38;24.02
37206;BME280;23099;42.636;23.198;2023-10-31T11:26:50;91745.22;;;21.33;24.03
37206;BME280;23099;42.636;23.198;2023-10-31T11:29:19;91741.94;;;21.26;24.25
37206;BME280;23099;42.636;23.198;2023-10-31T11:31:46;91737.56;;;21.15;24.38
37206;BME280;23099;42.636;23.198;2023-10-31T11:34:16;91740.41;;;21.25;25.60
37206;BME280;23099;42.636;23.198;2023-10-31T11:36:44;91728.91;;;21.21;25.74
37206;BME280;23099;42.636;23.198;2023-10-31T11:39:12;91719.09;;;21.36;26.09
37206;BME280;23099;42.636;23.198;2023-10-31T11:41:40;91720.44;;;21.31;25.54
37206;BME280;23099;42.636;23.198;2023-10-31T11:44:06;91717.91;;;21.24;25.83
37206;BME280;23099;42.636;23.198;2023-10-31T11:46:34;91713.53;;;21.14;25.79
37206;BME280;23099;42.636;23.198;2023-10-31T11:49:01;91709.28;;;21.13;25.60
37206;BME280;23099;42.636;23.198;2023-10-31T11:51:30;91690.91;;;21.04;25.48
37206;BME280;23099;42.636;23.198;2023-10-31T11:53:59;91696.78;;;21.03;24.91
37206;BME280;23099;42.636;23.198;2023-10-31T11:56:26;91701.44;;;21.02;24.24
37206;BME280;23099;42.636;23.198;2023-10-31T11:58:56;91701.44;;;21.02;24.75
37206;BME280;23099;42.636;23.198;2023-10-31T12:01:23;91692.31;;;20.96;25.13
37206;BME280;23099;42.636;23.198;2023-10-31T12:03:51;91695.69;;;21.00;25.30
37206;BME280;23099;42.636;23.198;2023-10-31T12:06:18;91690.25;;;21.00;24.60
37206;BME280;23099;42.636;23.198;2023-10-31T12:08:47;91695.16;;;21.05;25.23
37206;BME280;23099;42.636;23.198;2023-10-31T12:11:15;91690.16;;;21.16;25.54
37206;BME280;23099;42.636;23.198;2023-10-31T12:13:52;91697.38;;;21.36;25.52
37206;BME280;23099;42.636;23.198;2023-10-31T12:16:23;91698.03;;;21.52;25.90
37206;BME280;23099;42.636;23.198;2023-10-31T12:18:56;91692.34;;;21.72;25.18
37206;BME280;23099;42.636;23.198;2023-10-31T12:21:38;91684.31;;;21.69;23.99
37206;BME280;23099;42.636;23.198;2023-10-31T12:24:08;91673.00;;;21.58;24.17
37206;BME280;23099;42.636;23.198;2023-10-31T12:26:35;91678.66;;;21.50;25.41
37206;BME280;23099;42.636;23.198;2023-10-31T12:29:07;91669.44;;;21.48;24.96
37206;BME280;23099;42.636;23.198;2023-10-31T12:31:33;91676.28;;;21.40;25.02
37206;BME280;23099;42.636;23.198;2023-10-31T12:34:05;91667.47;;;21.36;24.59
37206;BME280;23099;42.636;23.198;2023-10-31T12:36:33;91654.63;;;21.36;24.88
37206;BME280;23099;42.636;23.198;2023-10-31T12:39:00;91650.94;;;21.30;25.63
37206;BME280;23099;42.636;23.198;2023-10-31T12:41:27;91649.19;;;21.24;25.89
37206;BME280;23099;42.636;23.198;2023-10-31T12:43:54;91665.38;;;21.14;26.21
37206;BME280;23099;42.636;23.198;2023-10-31T12:46:24;91661.47;;;21.03;26.92
37206;BME280;23099;42.636;23.198;2023-10-31T12:48:51;91671.75;;;20.95;27.27
37206;BME280;23099;42.636;23.198;2023-10-31T12:51:19;91657.22;;;20.89;26.92